Ghaziabad Weather



Ghaziabad's Current Weather

Temprature 26.266o clear sky

clear sky

Rain: 0 %

Min Temprature26.266o
Max Temprature26.266o
Humidity31
Wind Speed2.21 m/h
Sun Rise05:35:43
Sun Set18:39:27
Current Time: 21-Apr-2019 06:22:26
Lat/Lon: 30.4, 72.76




Ghaziabad's Geo Location



Ghaziabad's Weather Forecast

Time Overall Temp Min Temp Max Temp Humidity Wind Speed Rain
21-Apr-2019 (Sun)
08:00:00 clear sky 31.420 31.419 31.420 23 2.89 m/h 0 %
11:00:00 clear sky 37.250 37.250 37.250 14 2.45 m/h 0 %
14:00:00 clear sky 40.450 40.450 40.450 11 1.44 m/h 0 %
17:00:00 clear sky 39.450 39.450 39.450 11 3.23 m/h 0 %
20:00:00 clear sky 33.050 33.050 33.050 17 2.62 m/h 0 %
23:00:00 clear sky 30.520 30.520 30.520 22 2 m/h 0 %
22-Apr-2019 (Mon)
02:00:00 clear sky 29.170 29.170 29.170 25 3.48 m/h 0 %
05:00:00 clear sky 27.434 27.434 27.434 28 2.91 m/h 0 %
08:00:00 clear sky 32.226 32.226 32.226 25 3.72 m/h 0 %
11:00:00 clear sky 38.620 38.620 38.620 15 2.78 m/h 0 %
14:00:00 clear sky 42.715 42.715 42.715 10 0.95 m/h 0 %
17:00:00 clear sky 41.531 41.531 41.531 9 2.84 m/h 0 %
20:00:00 clear sky 35.050 35.050 35.050 14 1.86 m/h 0 %
23:00:00 clear sky 32.396 32.396 32.396 19 2.54 m/h 0 %
23-Apr-2019 (Tue)
02:00:00 clear sky 30.577 30.577 30.577 23 3.46 m/h 0 %
05:00:00 clear sky 28.906 28.906 28.906 27 3.5 m/h 0 %
08:00:00 broken clouds 33.627 33.627 33.627 21 4.52 m/h 0 %
11:00:00 scattered clouds 40.550 40.550 40.550 13 4.11 m/h 0 %
14:00:00 clear sky 43.650 43.650 43.650 8 3.19 m/h 0 %
17:00:00 clear sky 43.150 43.150 43.150 8 5.11 m/h 0 %
20:00:00 clear sky 36.428 36.428 36.428 12 2.74 m/h 0 %
23:00:00 few clouds 33.650 33.650 33.650 16 2.11 m/h 0 %
24-Apr-2019 (Wed)
02:00:00 scattered clouds 31.982 31.982 31.982 18 2.51 m/h 0 %
05:00:00 scattered clouds 30.404 30.404 30.404 16 1.33 m/h 0 %
08:00:00 clear sky 35.850 35.850 35.850 14 4.55 m/h 0 %
11:00:00 clear sky 42.708 42.708 42.708 8 7.46 m/h 0 %
14:00:00 clear sky 43.950 43.950 43.950 6 6.81 m/h 0 %
17:00:00 clear sky 42.350 42.350 42.350 5 4.49 m/h 0 %
20:00:00 clear sky 34.155 34.155 34.155 17 3.41 m/h 0 %
23:00:00 few clouds 30.945 30.945 30.945 30 8.65 m/h 0 %
25-Apr-2019 (Thu)
02:00:00 broken clouds 30.550 30.550 30.550 29 5.02 m/h 0 %
05:00:00 overcast clouds 28.972 28.972 28.972 32 2 m/h 0 %
08:00:00 overcast clouds 32.320 32.320 32.320 28 4.18 m/h 0 %
11:00:00 broken clouds 37.790 37.790 37.790 19 3.47 m/h 0 %
14:00:00 scattered clouds 39.750 39.750 39.750 16 3.19 m/h 0 %
17:00:00 few clouds 39.911 39.911 39.911 13 2.87 m/h 0 %
20:00:00 light rain 33.825 33.825 33.825 18 2.51 m/h 6 %
23:00:00 clear sky 31.443 31.443 31.443 21 1.44 m/h 0 %
26-Apr-2019 (Fri)
02:00:00 clear sky 29.632 29.632 29.632 23 2.1 m/h 0 %
05:00:00 clear sky 28.576 28.576 28.576 26 3.1 m/h 0 %

Famous Cities (60)